createdAt,value
2022-09-04T00:01:18.050Z,100.00
2022-09-04T00:03:51.408Z,100.00
2022-09-04T00:06:24.908Z,100.00
2022-09-04T00:09:08.815Z,100.00
2022-09-04T00:11:47.150Z,100.00
2022-09-04T00:14:18.709Z,100.00
2022-09-04T00:16:52.320Z,100.00
2022-09-04T00:19:31.158Z,100.00
2022-09-04T00:22:01.922Z,100.00
2022-09-04T00:24:33.315Z,100.00
2022-09-04T00:27:06.458Z,100.00
2022-09-04T00:29:44.809Z,100.00
2022-09-04T00:32:24.851Z,100.00
2022-09-04T00:35:04.463Z,100.00
2022-09-04T00:37:39.263Z,100.00
2022-09-04T00:40:11.008Z,100.00
2022-09-04T00:42:55.728Z,100.00
2022-09-04T00:45:36.148Z,100.00
2022-09-04T00:48:23.232Z,100.00
2022-09-04T00:51:17.870Z,100.00
2022-09-04T00:54:17.196Z,100.00
2022-09-04T00:57:06.600Z,100.00
2022-09-04T00:59:54.394Z,100.00
2022-09-04T01:02:32.587Z,100.00
2022-09-04T01:05:09.954Z,100.00
2022-09-04T01:07:56.831Z,100.00
2022-09-04T01:10:36.551Z,100.00
2022-09-04T01:13:10.279Z,100.00
2022-09-04T01:15:45.045Z,100.00
2022-09-04T01:18:19.110Z,100.00
2022-09-04T01:21:11.875Z,100.00
2022-09-04T01:24:09.317Z,100.00
2022-09-04T01:26:47.788Z,100.00
2022-09-04T01:29:24.438Z,100.00
2022-09-04T01:31:59.853Z,100.00
2022-09-04T01:34:39.334Z,100.00
2022-09-04T01:37:21.046Z,100.00
2022-09-04T01:40:00.548Z,100.00
2022-09-04T01:42:41.815Z,100.00
2022-09-04T01:45:11.825Z,100.00
2022-09-04T01:47:47.181Z,100.00
2022-09-04T01:50:21.987Z,100.00
2022-09-04T01:52:58.991Z,100.00
2022-09-04T01:55:35.514Z,100.00
2022-09-04T01:58:16.223Z,100.00
2022-09-04T02:00:53.769Z,100.00
2022-09-04T02:03:32.062Z,100.00
2022-09-04T02:06:08.516Z,100.00
2022-09-04T02:08:59.873Z,100.00
2022-09-04T02:11:30.560Z,100.00
2022-09-04T02:14:17.753Z,100.00
2022-09-04T02:16:58.970Z,100.00
2022-09-04T02:19:37.543Z,100.00
2022-09-04T02:22:15.189Z,100.00
2022-09-04T02:24:53.989Z,100.00
2022-09-04T02:27:27.517Z,100.00
2022-09-04T02:30:03.520Z,100.00
2022-09-04T02:32:39.035Z,100.00
2022-09-04T02:35:15.667Z,100.00
2022-09-04T02:38:00.385Z,100.00
2022-09-04T02:40:33.620Z,100.00
2022-09-04T02:43:19.276Z,100.00
2022-09-04T02:45:57.088Z,100.00
2022-09-04T02:48:35.193Z,100.00
2022-09-04T02:51:20.807Z,100.00
2022-09-04T02:53:59.006Z,100.00
2022-09-04T02:56:39.385Z,100.00
2022-09-04T02:59:32.959Z,100.00
2022-09-04T03:02:04.583Z,100.00
2022-09-04T03:04:39.206Z,100.00
2022-09-04T03:07:13.185Z,100.00
2022-09-04T03:09:47.091Z,100.00
2022-09-04T03:12:30.913Z,100.00
2022-09-04T03:15:04.930Z,100.00
2022-09-04T03:17:44.572Z,100.00
2022-09-04T03:20:18.536Z,100.00
2022-09-04T03:22:52.530Z,100.00
2022-09-04T03:26:10.751Z,100.00
2022-09-04T03:28:47.533Z,100.00
2022-09-04T03:31:27.877Z,100.00
2022-09-04T03:34:13.725Z,100.00
2022-09-04T03:36:48.318Z,100.00
2022-09-04T03:39:25.070Z,100.00
2022-09-04T03:42:07.988Z,100.00
2022-09-04T03:44:47.401Z,100.00
2022-09-04T03:47:29.731Z,100.00
2022-09-04T03:50:11.603Z,100.00
2022-09-04T03:52:55.824Z,100.00
2022-09-04T03:55:41.098Z,100.00
2022-09-04T03:58:17.708Z,100.00
2022-09-04T04:00:57.259Z,100.00
2022-09-04T04:03:43.931Z,100.00
2022-09-04T04:06:23.288Z,100.00
2022-09-04T04:09:27.863Z,100.00
2022-09-04T04:12:13.168Z,100.00
2022-09-04T04:15:03.306Z,100.00
2022-09-04T04:17:49.753Z,100.00
2022-09-04T04:20:29.379Z,100.00
2022-09-04T04:23:30.602Z,100.00
2022-09-04T04:26:08.694Z,100.00
2022-09-04T04:28:59.794Z,100.00
2022-09-04T04:31:45.799Z,100.00
2022-09-04T04:34:25.255Z,100.00
2022-09-04T04:36:59.729Z,100.00
2022-09-04T04:39:39.319Z,100.00
2022-09-04T04:42:20.507Z,100.00
2022-09-04T04:45:21.349Z,100.00
2022-09-04T04:48:24.951Z,100.00
2022-09-04T04:51:05.298Z,100.00
2022-09-04T04:53:41.801Z,100.00
2022-09-04T04:56:19.219Z,100.00
2022-09-04T04:59:02.960Z,100.00
2022-09-04T05:01:43.606Z,100.00
2022-09-04T05:04:18.596Z,100.00
2022-09-04T05:06:53.894Z,100.00
2022-09-04T05:09:31.718Z,100.00
2022-09-04T05:12:10.488Z,100.00
2022-09-04T05:14:48.406Z,100.00
2022-09-04T05:17:24.506Z,100.00
2022-09-04T05:20:00.182Z,100.00
2022-09-04T05:22:38.487Z,100.00
2022-09-04T05:25:11.531Z,100.00
2022-09-04T05:27:58.318Z,100.00
2022-09-04T05:30:37.114Z,100.00
2022-09-04T05:33:13.717Z,100.00
2022-09-04T05:35:52.966Z,100.00
2022-09-04T05:38:27.379Z,100.00
2022-09-04T05:41:07.412Z,100.00
2022-09-04T05:43:51.135Z,100.00
2022-09-04T05:46:31.859Z,100.00
2022-09-04T05:49:04.109Z,100.00
2022-09-04T05:51:56.502Z,100.00
2022-09-04T05:54:33.766Z,100.00
2022-09-04T05:57:13.214Z,100.00
2022-09-04T05:59:59.445Z,100.00
2022-09-04T06:02:59.833Z,100.00
2022-09-04T06:05:38.451Z,100.00
2022-09-04T06:08:23.136Z,100.00
2022-09-04T06:11:05.169Z,100.00
2022-09-04T06:14:08.093Z,100.00
2022-09-04T06:17:05.732Z,100.00
2022-09-04T06:19:54.224Z,100.00
2022-09-04T06:23:02.362Z,100.00
2022-09-04T06:26:13.142Z,100.00
2022-09-04T06:28:56.273Z,100.00
2022-09-04T06:32:04.243Z,100.00
2022-09-04T06:34:59.234Z,100.00
2022-09-04T06:37:38.441Z,100.00
2022-09-04T06:40:21.788Z,100.00
2022-09-04T06:43:03.714Z,100.00
2022-09-04T06:45:44.534Z,100.00
2022-09-04T06:48:23.266Z,100.00
2022-09-04T06:51:05.247Z,100.00
2022-09-04T06:53:42.787Z,100.00
2022-09-04T06:56:29.552Z,100.00
2022-09-04T06:59:27.744Z,100.00
2022-09-04T07:02:05.169Z,100.00
2022-09-04T07:04:44.966Z,100.00
2022-09-04T07:07:23.637Z,100.00
2022-09-04T07:10:01.323Z,100.00
2022-09-04T07:13:10.868Z,100.00
2022-09-04T07:16:04.919Z,100.00
2022-09-04T07:18:52.196Z,100.00
2022-09-04T07:21:28.602Z,100.00
2022-09-04T07:24:05.147Z,100.00
2022-09-04T07:26:38.902Z,100.00
2022-09-04T07:29:27.939Z,100.00
2022-09-04T07:32:02.664Z,100.00
2022-09-04T07:34:41.509Z,100.00
2022-09-04T07:37:27.152Z,100.00
2022-09-04T07:40:08.121Z,100.00
2022-09-04T07:42:42.700Z,100.00
2022-09-04T07:45:22.327Z,100.00
2022-09-04T07:47:59.537Z,100.00
2022-09-04T07:50:33.050Z,100.00
2022-09-04T07:53:25.676Z,100.00
2022-09-04T07:56:00.776Z,100.00
2022-09-04T07:58:50.442Z,100.00
2022-09-04T08:01:40.390Z,100.00
2022-09-04T08:04:29.618Z,100.00
2022-09-04T08:07:00.003Z,100.00
2022-09-04T08:09:50.925Z,100.00
2022-09-04T08:12:44.832Z,100.00
2022-09-04T08:15:19.869Z,100.00
2022-09-04T08:18:02.019Z,100.00
2022-09-04T08:20:44.095Z,100.00
2022-09-04T08:23:19.948Z,100.00
2022-09-04T08:26:00.749Z,100.00
2022-09-04T08:28:46.606Z,100.00
2022-09-04T08:31:22.319Z,100.00
2022-09-04T08:34:30.168Z,100.00
2022-09-04T08:37:07.892Z,100.00
2022-09-04T08:39:46.431Z,100.00
2022-09-04T08:42:55.945Z,100.00
2022-09-04T08:45:58.876Z,100.00
2022-09-04T08:49:17.808Z,99.61
2022-09-04T08:52:20.452Z,100.00
2022-09-04T08:55:25.224Z,87.40
2022-09-04T08:58:17.300Z,89.13
2022-09-04T09:00:53.844Z,83.67
2022-09-04T09:03:46.601Z,90.62
2022-09-04T09:07:00.514Z,96.64
2022-09-04T09:10:10.453Z,89.13
2022-09-04T09:13:11.413Z,89.28
2022-09-04T09:15:57.988Z,81.62
2022-09-04T09:18:40.551Z,88.20
2022-09-04T09:21:13.661Z,84.68
2022-09-04T09:24:06.531Z,75.10
2022-09-04T09:26:39.059Z,82.16
2022-09-04T09:29:46.706Z,86.70
2022-09-04T09:32:55.967Z,87.70
2022-09-04T09:36:12.156Z,76.21
2022-09-04T09:39:09.704Z,75.91
2022-09-04T09:42:15.052Z,72.49
2022-09-04T09:45:13.290Z,67.15
2022-09-04T09:48:19.689Z,67.49
2022-09-04T09:51:14.426Z,78.02
2022-09-04T09:54:19.513Z,68.30
2022-09-04T09:57:33.387Z,69.13
2022-09-04T10:00:13.458Z,75.51
2022-09-04T10:03:14.771Z,76.92
2022-09-04T10:06:17.532Z,70.38
2022-09-04T10:09:13.059Z,70.50
2022-09-04T10:12:34.588Z,69.81
2022-09-04T10:15:30.420Z,70.66
2022-09-04T10:18:33.778Z,69.59
2022-09-04T10:21:34.124Z,65.14
2022-09-04T10:24:37.770Z,64.28
2022-09-04T10:27:32.200Z,61.05
2022-09-04T10:30:10.110Z,55.76
2022-09-04T10:33:16.553Z,58.00
2022-09-04T10:35:57.588Z,56.58
2022-09-04T10:38:38.484Z,55.70
2022-09-04T10:41:35.653Z,56.97
2022-09-04T10:44:31.844Z,54.54
2022-09-04T10:47:09.013Z,56.48
2022-09-04T10:50:08.367Z,54.55
2022-09-04T10:53:08.179Z,57.82
2022-09-04T10:55:55.197Z,53.13
2022-09-04T10:58:38.352Z,54.74
2022-09-04T11:01:35.080Z,55.42
2022-09-04T11:04:40.222Z,49.88
2022-09-04T11:07:55.766Z,52.12
2022-09-04T11:10:39.568Z,55.65
2022-09-04T11:13:46.084Z,51.68
2022-09-04T11:16:36.028Z,53.32
2022-09-04T11:19:51.990Z,53.46
2022-09-04T11:23:01.108Z,55.53
2022-09-04T11:26:02.898Z,59.30
2022-09-04T11:28:57.095Z,53.95
2022-09-04T11:31:39.887Z,52.12
2022-09-04T11:35:06.803Z,47.70
2022-09-04T11:38:09.032Z,46.12
2022-09-04T11:41:29.042Z,46.52
2022-09-04T11:44:15.026Z,44.32
2022-09-04T11:47:29.127Z,47.62
2022-09-04T11:50:08.315Z,43.64
2022-09-04T11:52:59.674Z,43.55
2022-09-04T11:55:52.908Z,43.90
2022-09-04T11:58:40.261Z,43.03
2022-09-04T12:01:24.933Z,45.63
2022-09-04T12:04:20.386Z,42.36
2022-09-04T12:07:02.461Z,45.31
2022-09-04T12:09:55.791Z,46.53
2022-09-04T12:12:49.768Z,43.19
2022-09-04T12:15:56.657Z,42.48
2022-09-04T12:19:08.497Z,49.55
2022-09-04T12:22:05.091Z,53.55
2022-09-04T12:24:59.657Z,55.55
2022-09-04T12:27:46.816Z,48.06
2022-09-04T12:30:21.181Z,47.39
2022-09-04T12:33:19.855Z,41.93
2022-09-04T12:36:25.383Z,46.20
2022-09-04T12:39:26.715Z,38.24
2022-09-04T12:42:02.654Z,43.46
2022-09-04T12:44:44.237Z,46.00
2022-09-04T12:47:28.424Z,43.66
2022-09-04T12:50:12.153Z,44.26
2022-09-04T12:52:58.345Z,43.65
2022-09-04T12:55:36.216Z,42.32
2022-09-04T12:58:14.247Z,43.33
2022-09-04T13:00:55.385Z,43.56
2022-09-04T13:03:37.469Z,45.17
2022-09-04T13:06:21.756Z,43.08
2022-09-04T13:09:04.134Z,41.82
2022-09-04T13:11:47.577Z,44.33
2022-09-04T13:14:34.092Z,40.55
2022-09-04T13:17:09.753Z,38.76
2022-09-04T13:19:47.254Z,35.53
2022-09-04T13:22:28.839Z,34.31
2022-09-04T13:25:06.706Z,35.82
2022-09-04T13:27:48.249Z,35.96
2022-09-04T13:30:22.124Z,40.51
2022-09-04T13:33:16.589Z,33.24
2022-09-04T13:35:59.262Z,35.90
2022-09-04T13:39:11.233Z,34.78
2022-09-04T13:41:55.808Z,36.14
2022-09-04T13:44:59.987Z,35.09
2022-09-04T13:47:36.530Z,38.39
2022-09-04T13:50:14.108Z,37.76
2022-09-04T13:52:46.898Z,41.62
2022-09-04T13:55:22.371Z,41.85
2022-09-04T13:57:58.343Z,40.04
2022-09-04T14:00:27.602Z,42.60
2022-09-04T14:03:01.845Z,44.26
2022-09-04T14:05:33.178Z,50.75
2022-09-04T14:08:03.968Z,50.38
2022-09-04T14:10:55.761Z,50.60
2022-09-04T14:13:41.719Z,51.08
2022-09-04T14:16:11.712Z,54.48
2022-09-04T14:19:12.386Z,64.14
2022-09-04T14:22:00.416Z,67.78
2022-09-04T14:24:33.942Z,70.17
2022-09-04T14:27:15.033Z,72.75
2022-09-04T14:29:55.385Z,76.18
2022-09-04T14:32:32.471Z,79.74
2022-09-04T14:35:10.343Z,67.45
2022-09-04T14:38:04.485Z,62.32
2022-09-04T14:40:34.927Z,56.50
2022-09-04T14:43:13.585Z,60.15
2022-09-04T14:46:07.137Z,66.67
2022-09-04T14:48:40.705Z,63.68
2022-09-04T14:51:17.169Z,69.57
2022-09-04T14:53:50.679Z,67.42
2022-09-04T14:56:32.708Z,80.71
2022-09-04T14:59:10.889Z,76.78
2022-09-04T15:01:55.424Z,76.39
2022-09-04T15:04:26.536Z,84.18
2022-09-04T15:07:11.366Z,80.62
2022-09-04T15:09:43.898Z,85.65
2022-09-04T15:12:24.580Z,94.95
2022-09-04T15:15:05.299Z,96.79
2022-09-04T15:17:36.196Z,99.83
2022-09-04T15:20:09.083Z,100.00
2022-09-04T15:22:43.770Z,100.00
2022-09-04T15:25:57.311Z,100.00
2022-09-04T15:28:28.786Z,100.00
2022-09-04T15:31:15.481Z,100.00
2022-09-04T15:33:46.730Z,96.14
2022-09-04T15:36:20.204Z,100.00
2022-09-04T15:38:52.029Z,98.46
2022-09-04T15:41:28.035Z,94.39
2022-09-04T15:44:01.756Z,79.97
2022-09-04T15:46:42.868Z,76.10
2022-09-04T15:49:27.462Z,73.97
2022-09-04T15:52:03.533Z,71.37
2022-09-04T15:54:52.136Z,79.29
2022-09-04T15:57:27.805Z,64.46
2022-09-04T16:00:02.455Z,60.23
2022-09-04T16:02:39.775Z,59.94
2022-09-04T16:05:20.594Z,67.50
2022-09-04T16:08:03.762Z,80.27
2022-09-04T16:10:45.454Z,87.36
2022-09-04T16:13:34.840Z,94.50
2022-09-04T16:16:08.268Z,100.00
2022-09-04T16:18:50.467Z,87.41
2022-09-04T16:21:29.164Z,96.59
2022-09-04T16:24:07.249Z,100.00
2022-09-04T16:26:35.039Z,100.00
2022-09-04T16:29:06.385Z,100.00
2022-09-04T16:31:35.942Z,100.00
2022-09-04T16:34:13.755Z,100.00
2022-09-04T16:36:45.932Z,100.00
2022-09-04T16:39:25.809Z,100.00
2022-09-04T16:41:59.638Z,100.00
2022-09-04T16:44:31.926Z,100.00
2022-09-04T16:47:07.875Z,100.00
2022-09-04T16:49:47.064Z,100.00
2022-09-04T16:52:31.959Z,100.00
2022-09-04T16:55:10.006Z,100.00
2022-09-04T16:57:44.170Z,100.00
2022-09-04T17:00:14.643Z,100.00
2022-09-04T17:02:49.185Z,100.00
2022-09-04T17:05:28.490Z,100.00
2022-09-04T17:08:02.924Z,100.00
2022-09-04T17:10:41.420Z,100.00
2022-09-04T17:13:17.747Z,100.00
2022-09-04T17:15:54.831Z,100.00
2022-09-04T17:18:25.497Z,100.00
2022-09-04T17:26:39.798Z,100.00
2022-09-04T17:28:58.183Z,100.00
2022-09-04T17:29:07.927Z,100.00
2022-09-04T17:29:48.070Z,100.00
2022-09-04T17:34:14.653Z,100.00
2022-09-04T17:40:39.131Z,100.00
2022-09-04T17:40:40.957Z,100.00
2022-09-04T17:41:40.285Z,100.00
2022-09-04T17:44:29.256Z,100.00
2022-09-04T17:47:12.464Z,100.00
2022-09-04T17:49:45.976Z,100.00
2022-09-04T17:52:23.550Z,100.00
2022-09-04T17:54:52.984Z,100.00
2022-09-04T17:57:26.353Z,100.00
2022-09-04T18:00:01.142Z,100.00
2022-09-04T18:02:35.708Z,100.00
2022-09-04T18:05:15.840Z,100.00
2022-09-04T18:08:07.956Z,100.00
2022-09-04T18:10:51.874Z,100.00
2022-09-04T18:13:37.499Z,100.00
2022-09-04T18:16:50.378Z,100.00
2022-09-04T18:19:38.356Z,100.00
2022-09-04T18:22:26.541Z,100.00
2022-09-04T18:25:16.260Z,100.00
2022-09-04T18:28:11.452Z,100.00
2022-09-04T18:37:07.100Z,100.00
2022-09-04T18:37:07.402Z,100.00
2022-09-04T18:37:25.133Z,100.00
2022-09-04T18:39:50.281Z,100.00
2022-09-04T18:50:20.644Z,100.00
2022-09-04T18:50:32.524Z,100.00
2022-09-04T18:50:36.798Z,100.00
2022-09-04T18:53:54.119Z,100.00
2022-09-04T18:56:27.653Z,100.00
2022-09-04T18:59:03.151Z,100.00
2022-09-04T19:01:41.994Z,100.00
2022-09-04T19:04:38.769Z,100.00
2022-09-04T19:07:10.848Z,100.00
2022-09-04T19:09:56.583Z,100.00
2022-09-04T19:12:35.699Z,100.00
2022-09-04T19:15:36.738Z,100.00
2022-09-04T19:18:17.391Z,100.00
2022-09-04T19:20:49.132Z,100.00
2022-09-04T19:23:29.111Z,100.00
2022-09-04T19:26:03.052Z,100.00
2022-09-04T19:28:53.021Z,100.00
2022-09-04T19:31:31.039Z,100.00
2022-09-04T19:34:09.653Z,100.00
2022-09-04T19:36:43.826Z,100.00
2022-09-04T19:45:55.003Z,100.00
2022-09-04T19:46:00.253Z,100.00
2022-09-04T19:46:18.034Z,100.00
2022-09-04T19:48:20.678Z,100.00
2022-09-04T19:53:23.099Z,100.00
2022-09-04T19:53:57.470Z,100.00
2022-09-04T19:56:31.496Z,100.00
2022-09-04T19:59:06.375Z,100.00
2022-09-04T20:01:47.204Z,100.00
2022-09-04T20:04:25.495Z,100.00
2022-09-04T20:06:59.453Z,100.00
2022-09-04T20:09:33.969Z,100.00
2022-09-04T20:12:11.680Z,100.00
2022-09-04T20:14:46.537Z,100.00
2022-09-04T20:17:35.774Z,100.00
2022-09-04T20:20:13.815Z,100.00
2022-09-04T20:22:49.454Z,100.00
2022-09-04T20:25:32.229Z,100.00
2022-09-04T20:28:15.232Z,100.00
2022-09-04T20:30:49.453Z,100.00
2022-09-04T20:33:22.549Z,100.00
2022-09-04T20:35:59.662Z,100.00
2022-09-04T20:38:37.546Z,100.00
2022-09-04T20:41:13.651Z,100.00
2022-09-04T20:43:56.104Z,100.00
2022-09-04T20:52:43.353Z,100.00
2022-09-04T20:52:43.579Z,100.00
2022-09-04T20:52:56.060Z,100.00
2022-09-04T20:55:26.468Z,100.00
2022-09-04T21:03:12.254Z,100.00
2022-09-04T21:03:21.099Z,100.00
2022-09-04T21:04:34.891Z,100.00
2022-09-04T21:07:22.430Z,100.00
2022-09-04T21:09:59.658Z,100.00
2022-09-04T21:12:36.116Z,100.00
2022-09-04T21:15:11.605Z,100.00
2022-09-04T21:17:55.886Z,100.00
2022-09-04T21:21:00.048Z,100.00
2022-09-04T21:24:03.404Z,100.00
2022-09-04T21:26:50.861Z,100.00
2022-09-04T21:29:33.460Z,100.00
2022-09-04T21:32:36.135Z,100.00
2022-09-04T21:35:08.282Z,100.00
2022-09-04T21:37:46.841Z,100.00
2022-09-04T21:40:52.760Z,100.00
2022-09-04T21:43:48.338Z,100.00
2022-09-04T21:46:32.850Z,100.00
2022-09-04T21:49:24.373Z,100.00
2022-09-04T21:52:18.259Z,100.00
2022-09-04T21:58:10.085Z,100.00
2022-09-04T22:02:26.361Z,100.00
2022-09-04T22:02:42.619Z,100.00
2022-09-04T22:04:26.441Z,100.00
2022-09-04T22:08:34.600Z,100.00
2022-09-04T22:13:32.891Z,100.00
2022-09-04T22:13:37.502Z,100.00
2022-09-04T22:16:17.238Z,100.00
2022-09-04T22:19:16.327Z,100.00
2022-09-04T22:22:03.715Z,100.00
2022-09-04T22:24:53.059Z,100.00
2022-09-04T22:28:08.522Z,100.00
2022-09-04T22:30:43.237Z,100.00
2022-09-04T22:33:29.383Z,100.00
2022-09-04T22:37:00.440Z,100.00
2022-09-04T22:40:05.197Z,100.00
2022-09-04T22:42:42.828Z,100.00
2022-09-04T22:45:39.909Z,100.00
2022-09-04T22:48:40.917Z,100.00
2022-09-04T22:51:30.527Z,100.00
2022-09-04T22:54:17.151Z,100.00
2022-09-04T22:56:54.299Z,100.00
2022-09-04T22:59:54.590Z,100.00
2022-09-04T23:03:09.860Z,100.00
2022-09-04T23:06:24.862Z,100.00
2022-09-04T23:13:52.402Z,100.00
2022-09-04T23:13:56.901Z,100.00
2022-09-04T23:15:30.329Z,100.00
2022-09-04T23:20:23.793Z,100.00
2022-09-04T23:26:50.538Z,100.00
2022-09-04T23:26:53.813Z,100.00
2022-09-04T23:27:50.374Z,100.00
2022-09-04T23:30:25.670Z,100.00
2022-09-04T23:33:33.656Z,100.00
2022-09-04T23:36:29.682Z,100.00
2022-09-04T23:39:36.356Z,100.00
2022-09-04T23:42:25.605Z,100.00
2022-09-04T23:45:14.501Z,100.00
2022-09-04T23:48:19.129Z,100.00
2022-09-04T23:50:55.443Z,100.00
2022-09-04T23:53:32.493Z,100.00
2022-09-04T23:56:17.238Z,100.00
2022-09-04T23:59:31.888Z,100.00
